Time;durP1;ratioP1;P1;durP2;ratioP2;P2;SDS_P1;SDS_P2;PMS_P1;PMS_P2;Temp;Humidity;BMP_temperature;BMP_pressure;BME280_temperature;BME280_humidity;BME280_pressure;Samples;Min_cycle;Max_cycle;Signal;HPM_P1;HPM_P2
2020/12/12 00:02:16;;;;;;;48.35;20.38;;;3.80;99.90;;;;;;5134848;27;20083;-82
2020/12/12 00:04:42;;;;;;;51.55;24.70;;;3.80;99.90;;;;;;5134896;27;20062;-83
2020/12/12 00:07:08;;;;;;;57.08;26.27;;;3.80;99.90;;;;;;5134487;27;20195;-82
2020/12/12 00:09:35;;;;;;;53.75;23.75;;;3.70;99.90;;;;;;5132002;27;20117;-82
2020/12/12 00:12:00;;;;;;;60.60;26.52;;;3.80;99.90;;;;;;5132447;27;20034;-81
2020/12/12 00:14:26;;;;;;;57.70;23.38;;;3.80;99.90;;;;;;5113627;27;20023;-81
2020/12/12 00:16:52;;;;;;;53.47;23.60;;;3.80;99.90;;;;;;5113683;27;20025;-81
2020/12/12 00:19:18;;;;;;;64.90;26.15;;;3.80;99.90;;;;;;5122897;27;20032;-81
2020/12/12 00:21:43;;;;;;;59.95;24.13;;;3.80;99.90;;;;;;5133690;27;20041;-81
2020/12/12 00:24:12;;;;;;;58.63;24.52;;;3.80;99.90;;;;;;5134624;27;20038;-82
2020/12/12 00:26:37;;;;;;;65.15;28.58;;;3.80;99.90;;;;;;5118507;27;20019;-82
2020/12/12 00:29:03;;;;;;;57.92;26.52;;;3.80;99.90;;;;;;5131078;27;20360;-81
2020/12/12 00:31:28;;;;;;;66.53;26.65;;;3.80;99.90;;;;;;5115354;27;20467;-82
2020/12/12 00:33:54;;;;;;;56.60;24.67;;;3.80;99.90;;;;;;5113698;27;20031;-81
2020/12/12 00:36:19;;;;;;;63.70;25.90;;;3.80;99.90;;;;;;5114983;27;20046;-82
2020/12/12 00:38:45;;;;;;;60.00;25.30;;;3.80;99.90;;;;;;5113604;27;20032;-81
2020/12/12 00:41:11;;;;;;;64.95;26.98;;;3.80;99.90;;;;;;5128263;27;20025;-82
2020/12/12 00:43:36;;;;;;;64.85;26.98;;;3.80;99.90;;;;;;5134473;27;20077;-82
2020/12/12 00:46:02;;;;;;;68.50;26.23;;;3.70;99.90;;;;;;5133918;27;20508;-82
2020/12/12 00:48:27;;;;;;;67.45;26.70;;;3.80;99.90;;;;;;5152491;27;20078;-81
2020/12/12 00:50:53;;;;;;;63.22;26.88;;;3.80;99.90;;;;;;5133382;27;20030;-81
2020/12/12 00:53:19;;;;;;;63.35;27.95;;;3.80;99.90;;;;;;5134081;27;20022;-82
2020/12/12 00:55:44;;;;;;;71.80;29.95;;;3.80;99.90;;;;;;5132258;27;20027;-81
2020/12/12 00:58:10;;;;;;;66.10;27.30;;;3.80;99.90;;;;;;5131534;27;20023;-81
2020/12/12 01:00:36;;;;;;;60.92;27.40;;;3.90;99.90;;;;;;5143164;27;20023;-81
2020/12/12 01:03:03;;;;;;;72.03;28.55;;;3.80;99.90;;;;;;5133667;27;20493;-82
2020/12/12 01:05:32;;;;;;;75.57;29.50;;;3.90;99.90;;;;;;5133286;27;20027;-82
2020/12/12 01:07:58;;;;;;;74.90;30.15;;;3.90;99.90;;;;;;5133203;27;20051;-82
2020/12/12 01:10:25;;;;;;;71.82;29.17;;;3.80;99.90;;;;;;5124854;27;20033;-81
2020/12/12 01:12:51;;;;;;;67.22;28.67;;;3.80;99.90;;;;;;5131549;27;20070;-81
2020/12/12 01:15:17;;;;;;;86.28;31.35;;;3.90;99.90;;;;;;5113373;27;20395;-81
2020/12/12 01:17:43;;;;;;;76.60;27.65;;;3.90;99.90;;;;;;5112200;27;20371;-81
2020/12/12 01:20:09;;;;;;;66.30;28.70;;;3.90;99.90;;;;;;5137198;27;20034;-81
2020/12/12 01:22:34;;;;;;;72.45;30.20;;;3.90;99.90;;;;;;5130614;27;20019;-81
2020/12/12 01:25:00;;;;;;;69.65;31.52;;;3.90;99.90;;;;;;5113109;27;20092;-82
2020/12/12 01:27:26;;;;;;;70.10;29.20;;;3.90;99.90;;;;;;5130117;27;20023;-82
2020/12/12 01:29:51;;;;;;;69.15;29.52;;;3.90;99.90;;;;;;5131596;27;20029;-82
2020/12/12 01:32:17;;;;;;;80.30;30.83;;;3.90;99.90;;;;;;5132696;27;20019;-81
2020/12/12 01:34:42;;;;;;;69.80;29.92;;;3.90;99.90;;;;;;5147051;27;20395;-82
2020/12/12 01:37:08;;;;;;;69.60;30.08;;;3.90;99.90;;;;;;5131090;27;20379;-82
2020/12/12 01:39:33;;;;;;;82.60;30.85;;;4.00;99.90;;;;;;5132788;27;20027;-82
2020/12/12 01:41:59;;;;;;;71.55;31.27;;;4.00;99.90;;;;;;5112349;27;20073;-82
2020/12/12 01:44:25;;;;;;;73.25;30.98;;;4.00;99.90;;;;;;5112821;27;20098;-82
2020/12/12 01:46:51;;;;;;;76.63;32.63;;;4.00;99.90;;;;;;5128473;27;20023;-81
2020/12/12 01:49:16;;;;;;;74.03;30.60;;;4.00;99.90;;;;;;5129626;27;20360;-82
2020/12/12 01:51:43;;;;;;;80.88;31.75;;;4.00;99.90;;;;;;5132754;27;20111;-81
2020/12/12 01:54:09;;;;;;;84.45;34.28;;;4.00;99.90;;;;;;5132547;27;20027;-81
2020/12/12 01:56:37;;;;;;;72.65;30.95;;;4.00;99.90;;;;;;5121053;27;20532;-81
2020/12/12 01:59:02;;;;;;;84.00;35.63;;;4.00;99.90;;;;;;5112279;27;20027;-82
2020/12/12 02:01:33;;;;;;;81.65;34.20;;;4.00;99.90;;;;;;5117975;27;20087;-82
2020/12/12 02:04:00;;;;;;;86.38;36.38;;;4.00;99.90;;;;;;5132461;27;20054;-82
2020/12/12 02:06:26;;;;;;;83.55;35.92;;;4.00;99.90;;;;;;5128672;27;20047;-81
2020/12/12 02:08:52;;;;;;;76.72;31.30;;;4.00;99.90;;;;;;5132064;27;20091;-81
2020/12/12 02:11:19;;;;;;;88.72;34.08;;;4.00;99.90;;;;;;5130363;27;20031;-81
2020/12/12 02:13:48;;;;;;;88.95;36.13;;;4.00;99.90;;;;;;5132141;27;20022;-81
2020/12/12 02:16:14;;;;;;;84.35;34.22;;;4.00;99.90;;;;;;5131956;27;20023;-82
2020/12/12 02:18:40;;;;;;;82.15;34.50;;;4.00;99.90;;;;;;5132444;27;20027;-81
2020/12/12 02:21:07;;;;;;;82.82;36.97;;;3.90;99.90;;;;;;5132139;27;20106;-81
2020/12/12 02:23:33;;;;;;;93.50;36.90;;;3.90;99.90;;;;;;5129950;27;20043;-82
2020/12/12 02:25:58;;;;;;;84.60;35.80;;;3.90;99.90;;;;;;5111726;28;20110;-82
2020/12/12 02:28:49;;;;;;;90.50;39.05;;;3.90;99.90;;;;;;5111839;28;20119;-82
2020/12/12 02:31:10;;;;;;;99.25;37.17;;;3.90;99.90;;;;;;5144881;27;20035;-82
2020/12/12 02:33:38;;;;;;;88.38;36.67;;;4.00;99.90;;;;;;5154765;27;20470;-81
2020/12/12 02:36:05;;;;;;;96.85;39.22;;;4.00;99.90;;;;;;5149454;27;20522;-82
2020/12/12 02:38:30;;;;;;;85.18;34.65;;;4.00;99.90;;;;;;5155469;27;20022;-82
2020/12/12 02:40:56;;;;;;;90.20;35.78;;;4.00;99.90;;;;;;5144868;27;20030;-82
2020/12/12 02:43:22;;;;;;;91.30;35.60;;;4.00;99.90;;;;;;5137229;27;20038;-82
2020/12/12 02:45:48;;;;;;;89.75;35.45;;;4.00;99.90;;;;;;5141914;27;20058;-82
2020/12/12 02:48:14;;;;;;;87.90;36.63;;;4.00;99.90;;;;;;5115861;27;20030;-82
2020/12/12 02:50:41;;;;;;;90.57;35.90;;;4.00;99.90;;;;;;5116614;27;20419;-81
2020/12/12 02:53:07;;;;;;;84.40;35.03;;;4.00;99.90;;;;;;5115557;27;20019;-82
2020/12/12 02:55:33;;;;;;;85.82;38.13;;;4.00;99.90;;;;;;5116269;27;20019;-81
2020/12/12 02:57:58;;;;;;;83.90;33.72;;;4.00;99.90;;;;;;5115847;27;20475;-82
2020/12/12 03:00:26;;;;;;;82.03;34.53;;;4.00;99.90;;;;;;5124537;27;20047;-82
2020/12/12 03:02:51;;;;;;;89.00;38.53;;;4.00;99.90;;;;;;5136001;27;20023;-82
2020/12/12 03:05:17;;;;;;;84.43;36.22;;;4.00;99.90;;;;;;5132172;27;20033;-82
2020/12/12 03:07:43;;;;;;;88.97;38.17;;;4.00;99.90;;;;;;5132127;27;20200;-82
2020/12/12 03:10:09;;;;;;;94.55;37.80;;;4.00;99.90;;;;;;5130618;27;20471;-82
2020/12/12 03:12:36;;;;;;;94.82;37.63;;;4.00;99.90;;;;;;5115397;27;20118;-82
2020/12/12 03:15:06;;;;;;;83.85;36.22;;;4.00;99.90;;;;;;5098483;27;20047;-81
2020/12/12 03:17:31;;;;;;;87.30;35.88;;;4.10;99.90;;;;;;5133526;27;20023;-81
2020/12/12 03:19:57;;;;;;;91.05;36.10;;;4.00;99.90;;;;;;5115164;27;20072;-82
2020/12/12 03:22:23;;;;;;;86.85;39.20;;;4.00;99.90;;;;;;5121065;27;20018;-81
2020/12/12 03:24:48;;;;;;;88.57;37.67;;;4.00;99.90;;;;;;5123502;27;20031;-82
2020/12/12 03:27:14;;;;;;;106.78;40.15;;;4.10;99.90;;;;;;5135369;27;20075;-82
2020/12/12 03:29:39;;;;;;;91.38;38.03;;;4.10;99.90;;;;;;5154125;27;20443;-82
2020/12/12 03:32:09;;;;;;;92.43;39.35;;;4.10;99.90;;;;;;5135537;27;20046;-81
2020/12/12 03:34:36;;;;;;;93.03;39.00;;;4.10;99.90;;;;;;5143468;27;20053;-81
2020/12/12 03:37:03;;;;;;;82.80;36.42;;;4.00;99.90;;;;;;5153708;27;20467;-82
2020/12/12 03:39:28;;;;;;;97.75;39.97;;;4.00;99.90;;;;;;5153147;27;20030;-82
2020/12/12 03:41:54;;;;;;;93.38;39.50;;;4.10;99.90;;;;;;5153177;27;20416;-81
2020/12/12 03:44:19;;;;;;;90.85;39.40;;;4.10;99.90;;;;;;5134104;27;20037;-81
2020/12/12 03:46:45;;;;;;;92.93;38.92;;;4.10;99.90;;;;;;5131513;27;20020;-81
2020/12/12 03:49:10;;;;;;;86.68;34.92;;;4.20;99.90;;;;;;5131134;27;20055;-82
2020/12/12 03:51:36;;;;;;;87.63;38.75;;;4.10;99.90;;;;;;5152417;27;20029;-81
2020/12/12 03:54:02;;;;;;;91.75;38.50;;;4.10;99.90;;;;;;5135007;27;20152;-82
2020/12/12 03:56:27;;;;;;;93.38;40.10;;;4.10;99.90;;;;;;5153008;27;20019;-81
2020/12/12 03:58:53;;;;;;;85.57;40.05;;;4.00;99.90;;;;;;5134749;27;20033;-82
2020/12/12 04:01:18;;;;;;;96.25;41.85;;;4.00;99.90;;;;;;5133592;27;20018;-82
2020/12/12 04:03:44;;;;;;;90.28;36.10;;;4.00;99.90;;;;;;5133994;27;20046;-81
2020/12/12 04:06:10;;;;;;;102.50;41.72;;;4.00;99.90;;;;;;5153111;27;20382;-82
2020/12/12 04:08:36;;;;;;;92.20;40.50;;;4.00;99.90;;;;;;5134633;27;20036;-82
2020/12/12 04:11:02;;;;;;;106.22;46.22;;;4.00;99.90;;;;;;5119223;27;20485;-81
2020/12/12 04:13:28;;;;;;;106.60;41.65;;;3.90;99.90;;;;;;5132328;27;20069;-82
2020/12/12 04:15:54;;;;;;;99.97;41.90;;;3.90;99.90;;;;;;5114423;27;20019;-81
2020/12/12 04:18:20;;;;;;;102.45;44.65;;;4.00;99.90;;;;;;5114195;27;20100;-81
2020/12/12 04:20:46;;;;;;;101.15;41.97;;;4.00;99.90;;;;;;5114244;27;20019;-82
2020/12/12 04:23:11;;;;;;;106.88;44.55;;;4.00;99.90;;;;;;5133121;27;20054;-82
2020/12/12 04:25:37;;;;;;;111.20;45.53;;;4.00;99.90;;;;;;5125313;27;20031;-82
2020/12/12 04:28:03;;;;;;;103.32;44.75;;;4.00;99.90;;;;;;5147726;27;20098;-82
2020/12/12 04:30:28;;;;;;;100.28;45.47;;;4.00;99.90;;;;;;5143471;27;20026;-82
2020/12/12 04:32:54;;;;;;;112.68;45.92;;;4.00;99.90;;;;;;5131233;27;20152;-82
2020/12/12 04:35:19;;;;;;;102.10;43.72;;;4.00;99.90;;;;;;5134116;27;20437;-82
2020/12/12 04:37:45;;;;;;;98.97;41.28;;;4.00;99.90;;;;;;5134093;27;20031;-82
2020/12/12 04:40:11;;;;;;;104.47;44.33;;;4.00;99.90;;;;;;5125872;27;20027;-81
2020/12/12 04:42:37;;;;;;;103.47;43.75;;;4.00;99.90;;;;;;5113665;27;20073;-82
2020/12/12 04:45:04;;;;;;;109.50;43.65;;;4.00;99.90;;;;;;5145453;27;20483;-82
2020/12/12 04:47:30;;;;;;;103.20;42.88;;;4.00;99.90;;;;;;5133333;27;20475;-81
2020/12/12 04:49:57;;;;;;;109.07;42.35;;;3.90;99.90;;;;;;5133215;27;20026;-82
2020/12/12 04:52:24;;;;;;;102.10;45.78;;;4.00;99.90;;;;;;5152350;27;20035;-82
2020/12/12 04:54:51;;;;;;;107.55;45.45;;;4.00;99.90;;;;;;5133565;27;20383;-82
2020/12/12 04:57:17;;;;;;;104.70;43.35;;;4.00;99.90;;;;;;5133816;27;20019;-82
2020/12/12 04:59:43;;;;;;;100.90;43.25;;;4.00;99.90;;;;;;5082953;28;20036;-82
2020/12/12 05:02:12;;;;;;;98.13;42.65;;;4.00;99.90;;;;;;5053747;28;20032;-82
2020/12/12 05:04:39;;;;;;;102.55;43.08;;;3.90;99.90;;;;;;5088211;28;20048;-82
2020/12/12 05:07:04;;;;;;;96.78;41.28;;;4.00;99.90;;;;;;5097056;28;20192;-82
2020/12/12 05:09:30;;;;;;;100.38;43.45;;;3.90;99.90;;;;;;5089730;28;20527;-82
2020/12/12 05:11:56;;;;;;;100.55;43.35;;;3.90;99.90;;;;;;5088373;28;20037;-82
2020/12/12 05:14:22;;;;;;;101.95;44.22;;;3.90;99.90;;;;;;5071910;28;20031;-82
2020/12/12 05:16:47;;;;;;;96.97;41.90;;;3.90;99.90;;;;;;5108178;28;20023;-82
2020/12/12 05:19:13;;;;;;;104.07;42.80;;;4.00;99.90;;;;;;5083349;28;20039;-82
2020/12/12 05:21:46;;;;;;;99.20;43.15;;;3.90;99.90;;;;;;5091108;28;20452;-82
2020/12/12 05:24:12;;;;;;;100.43;41.65;;;3.90;99.90;;;;;;5091381;28;20134;-82
2020/12/12 05:26:37;;;;;;;98.63;40.92;;;4.00;99.90;;;;;;5091021;28;20545;-82
2020/12/12 05:29:04;;;;;;;94.63;41.95;;;3.90;99.90;;;;;;5091257;28;20412;-82
2020/12/12 05:31:30;;;;;;;105.93;42.78;;;4.00;99.90;;;;;;5107988;28;20407;-82
2020/12/12 05:33:56;;;;;;;100.53;45.30;;;4.00;99.90;;;;;;5071948;28;20123;-82
2020/12/12 05:36:27;;;;;;;104.13;41.72;;;4.00;99.90;;;;;;5092617;27;20039;-82
2020/12/12 05:38:59;;;;;;;100.60;41.67;;;4.00;99.90;;;;;;5129169;27;20027;-82
2020/12/12 05:41:27;;;;;;;94.55;40.95;;;4.00;99.90;;;;;;5111254;27;20058;-82
2020/12/12 05:43:53;;;;;;;91.57;41.08;;;4.10;99.90;;;;;;5091579;28;20511;-81
2020/12/12 05:46:23;;;;;;;102.03;41.53;;;3.90;99.90;;;;;;5105916;28;20024;-82
2020/12/12 05:48:50;;;;;;;92.40;41.55;;;4.00;99.90;;;;;;5091360;28;20032;-82
2020/12/12 05:51:16;;;;;;;99.85;43.78;;;4.00;99.90;;;;;;5109991;28;20088;-82
2020/12/12 05:53:43;;;;;;;108.95;43.20;;;4.00;99.90;;;;;;5110199;28;20028;-82
2020/12/12 05:56:11;;;;;;;94.88;41.63;;;4.00;99.90;;;;;;5104298;28;20039;-82
2020/12/12 05:58:39;;;;;;;99.95;42.70;;;4.00;99.90;;;;;;5091292;28;20028;-82
2020/12/12 06:01:11;;;;;;;100.57;42.92;;;4.00;99.90;;;;;;5121767;27;20029;-81
2020/12/12 06:03:49;;;;;;;97.90;44.50;;;4.00;99.90;;;;;;5128549;27;20045;-82
2020/12/12 06:06:21;;;;;;;101.53;43.38;;;3.90;99.90;;;;;;5129774;27;20428;-82
2020/12/12 06:09:01;;;;;;;106.88;41.35;;;3.90;99.90;;;;;;5150692;27;20038;-82
2020/12/12 06:11:31;;;;;;;102.32;43.38;;;3.90;99.90;;;;;;5131995;27;20475;-82
2020/12/12 06:13:59;;;;;;;88.68;40.42;;;3.90;99.90;;;;;;5111807;28;20026;-82
2020/12/12 06:16:26;;;;;;;94.57;43.65;;;3.90;99.90;;;;;;5112186;27;20023;-82
2020/12/12 06:19:12;;;;;;;90.97;42.38;;;3.90;99.90;;;;;;5130198;27;20416;-82
2020/12/12 06:21:43;;;;;;;100.75;42.60;;;3.90;99.90;;;;;;5111751;28;20027;-81
2020/12/12 06:24:16;;;;;;;102.85;46.17;;;3.90;99.90;;;;;;5130139;28;20471;-82
2020/12/12 06:27:01;;;;;;;104.03;45.67;;;3.90;99.90;;;;;;5129975;28;20035;-82
2020/12/12 06:29:31;;;;;;;105.78;45.08;;;3.90;99.90;;;;;;5114666;27;20109;-81
2020/12/12 06:31:58;;;;;;;104.10;46.35;;;3.90;99.90;;;;;;5114296;28;20088;-82
2020/12/12 06:34:44;;;;;;;103.75;43.80;;;3.90;99.90;;;;;;5112438;27;20036;-81
2020/12/12 06:37:32;;;;;;;99.07;44.10;;;3.90;99.90;;;;;;5132388;27;20048;-82
2020/12/12 06:39:59;;;;;;;101.32;43.08;;;3.90;99.90;;;;;;5131601;27;20037;-82
2020/12/12 06:42:42;;;;;;;106.35;44.78;;;3.90;99.90;;;;;;5131952;27;20026;-82
2020/12/12 06:45:17;;;;;;;99.25;43.65;;;3.90;99.90;;;;;;5150512;27;20105;-82
2020/12/12 06:47:43;;;;;;;102.72;42.25;;;3.90;99.90;;;;;;5132058;27;20027;-82
2020/12/12 06:50:21;;;;;;;96.45;43.60;;;3.90;99.90;;;;;;5124354;28;20031;-81
2020/12/12 06:52:47;;;;;;;90.05;41.53;;;3.90;99.90;;;;;;5106904;28;20049;-82
2020/12/12 06:55:15;;;;;;;105.90;42.00;;;3.90;99.90;;;;;;5111705;28;20023;-82
2020/12/12 06:57:43;;;;;;;112.63;47.50;;;3.90;99.90;;;;;;5129890;28;20042;-82
2020/12/12 07:00:17;;;;;;;110.63;45.13;;;3.80;99.90;;;;;;5128564;27;20419;-82
2020/12/12 07:02:56;;;;;;;113.00;42.40;;;3.90;99.90;;;;;;5131681;27;20019;-81
2020/12/12 07:05:24;;;;;;;105.43;42.67;;;3.90;99.90;;;;;;5131218;27;20446;-82
2020/12/12 07:07:50;;;;;;;104.63;43.28;;;3.90;99.90;;;;;;5150045;27;20138;-82
2020/12/12 07:10:16;;;;;;;102.80;43.85;;;3.90;99.90;;;;;;5122737;28;20028;-82
2020/12/12 07:12:42;;;;;;;98.78;43.00;;;3.90;99.90;;;;;;5111071;28;20023;-81
2020/12/12 07:15:07;;;;;;;95.72;42.53;;;4.00;99.90;;;;;;5118078;27;20022;-81
2020/12/12 07:17:33;;;;;;;99.07;41.85;;;4.00;99.90;;;;;;5131811;27;20076;-82
2020/12/12 07:20:00;;;;;;;97.65;42.80;;;3.90;99.90;;;;;;5146072;27;20031;-82
2020/12/12 07:22:28;;;;;;;93.95;42.38;;;3.90;99.90;;;;;;5114953;27;20399;-82
2020/12/12 07:24:56;;;;;;;102.10;45.15;;;3.80;99.90;;;;;;5114603;27;20045;-82
2020/12/12 07:27:21;;;;;;;95.15;41.33;;;3.90;99.90;;;;;;5133522;27;20023;-82
2020/12/12 07:29:47;;;;;;;92.05;41.13;;;3.90;99.90;;;;;;5133179;27;20033;-82
2020/12/12 07:32:13;;;;;;;95.80;41.03;;;3.90;99.90;;;;;;5134634;27;20384;-81
2020/12/12 07:34:38;;;;;;;104.57;42.55;;;3.90;99.90;;;;;;5135497;27;20022;-81
2020/12/12 07:37:06;;;;;;;104.43;44.30;;;4.00;99.90;;;;;;5135316;27;20082;-81
2020/12/12 07:39:41;;;;;;;105.82;41.63;;;4.00;99.90;;;;;;5133019;27;20038;-82
2020/12/12 07:42:09;;;;;;;103.25;44.08;;;3.90;99.90;;;;;;5114768;27;20439;-82
2020/12/12 07:44:38;;;;;;;102.75;43.80;;;3.90;99.90;;;;;;5117111;27;20039;-82
2020/12/12 07:47:07;;;;;;;95.15;40.88;;;4.00;99.90;;;;;;5134792;27;20411;-82
2020/12/12 07:49:34;;;;;;;99.03;41.13;;;4.00;99.90;;;;;;5137667;27;20036;-81
2020/12/12 07:52:11;;;;;;;94.57;42.35;;;4.00;99.90;;;;;;5135137;27;20116;-81
2020/12/12 07:54:43;;;;;;;94.18;43.63;;;4.00;99.90;;;;;;5133618;27;20029;-81
2020/12/12 07:57:12;;;;;;;;;;;4.00;99.90;;;;;;5129862;27;20042;-81
2020/12/12 07:59:38;;;;;;;97.75;43.10;;;4.00;99.90;;;;;;5134579;27;19997;-81
2020/12/12 08:02:05;;;;;;;98.10;40.90;;;4.10;99.90;;;;;;5134559;27;20510;-82
2020/12/12 08:04:31;;;;;;;97.20;42.60;;;4.00;99.90;;;;;;5135415;27;20122;-82
2020/12/12 08:06:57;;;;;;;99.82;41.50;;;4.10;99.90;;;;;;5134776;27;20046;-81
2020/12/12 08:09:25;;;;;;;99.45;40.38;;;4.10;99.90;;;;;;5151736;27;20031;-82
2020/12/12 08:11:59;;;;;;;112.85;41.78;;;4.10;99.90;;;;;;5114911;27;20055;-81
2020/12/12 08:14:27;;;;;;;93.95;41.00;;;4.00;99.90;;;;;;5115143;27;20527;-81
2020/12/12 08:17:00;;;;;;;99.80;42.08;;;4.00;99.90;;;;;;5115187;27;20027;-82
2020/12/12 08:19:28;;;;;;;101.30;41.53;;;4.10;99.90;;;;;;5132588;27;20023;-82
2020/12/12 08:22:16;;;;;;;88.78;39.38;;;4.10;99.90;;;;;;5134136;27;20368;-82
2020/12/12 08:24:44;;;;;;;100.85;43.15;;;4.10;99.90;;;;;;5133543;27;20133;-81
2020/12/12 08:27:20;;;;;;;103.25;42.13;;;4.20;99.90;;;;;;5134012;27;20470;-82
2020/12/12 08:29:52;;;;;;;94.22;41.65;;;4.20;99.90;;;;;;5130780;27;20019;-82
2020/12/12 08:32:32;;;;;;;;;;;4.20;99.90;;;;;;5152997;27;20097;-81
2020/12/12 08:35:10;;;;;;;92.70;40.35;;;4.20;99.90;;;;;;5152050;27;19907;-81
2020/12/12 08:37:36;;;;;;;98.28;40.25;;;4.20;99.90;;;;;;5134253;27;20455;-81
2020/12/12 08:40:09;;;;;;;97.18;40.47;;;4.30;99.90;;;;;;5131388;27;20025;-82
2020/12/12 08:42:35;;;;;;;98.38;42.60;;;4.20;99.90;;;;;;5133566;27;20030;-82
2020/12/12 08:45:17;;;;;;;96.47;42.00;;;4.30;99.90;;;;;;5127207;27;20043;-81
2020/12/12 08:47:44;;;;;;;98.72;42.78;;;4.30;99.90;;;;;;5123496;27;20015;-82
2020/12/12 08:50:10;;;;;;;93.07;41.15;;;4.30;99.90;;;;;;5139470;27;20042;-81
2020/12/12 08:52:36;;;;;;;96.95;41.67;;;4.30;99.90;;;;;;5144056;27;20543;-80
2020/12/12 08:55:04;;;;;;;85.00;37.78;;;4.30;99.90;;;;;;5132491;27;20023;-80
2020/12/12 08:57:29;;;;;;;93.22;40.10;;;4.20;99.90;;;;;;5117868;27;20027;-81
2020/12/12 09:00:04;;;;;;;101.75;41.45;;;4.20;99.90;;;;;;5117747;27;20027;-81
2020/12/12 09:02:29;;;;;;;86.63;38.30;;;4.30;99.90;;;;;;5116919;27;20041;-81
2020/12/12 09:05:09;;;;;;;96.55;39.75;;;4.30;99.90;;;;;;5134086;27;20428;-81
2020/12/12 09:07:36;;;;;;;91.10;39.08;;;4.40;99.90;;;;;;5106015;28;20079;-82
2020/12/12 09:10:12;;;;;;;91.00;40.22;;;4.40;99.90;;;;;;5122387;27;20046;-81
2020/12/12 09:12:51;;;;;;;88.85;39.25;;;4.50;99.90;;;;;;5116068;27;20027;-82
2020/12/12 09:15:17;;;;;;;89.68;39.47;;;4.50;99.90;;;;;;5113453;27;20023;-82
2020/12/12 09:17:42;;;;;;;87.95;37.85;;;4.50;99.90;;;;;;5132087;27;20042;-82
2020/12/12 09:20:08;;;;;;;90.18;38.92;;;4.50;99.90;;;;;;5131611;27;20471;-82
2020/12/12 09:22:35;;;;;;;90.45;38.83;;;4.50;99.90;;;;;;5131165;27;20065;-81
2020/12/12 09:25:01;;;;;;;95.25;39.95;;;4.50;99.90;;;;;;5112687;27;20039;-82
2020/12/12 09:27:27;;;;;;;95.03;41.67;;;4.50;99.90;;;;;;5112568;27;20538;-82
2020/12/12 09:29:53;;;;;;;88.07;38.08;;;4.60;99.90;;;;;;5111676;27;20380;-82
2020/12/12 09:32:19;;;;;;;84.07;38.53;;;4.50;99.90;;;;;;5111617;27;20026;-82
2020/12/12 09:34:45;;;;;;;94.03;39.13;;;4.60;99.90;;;;;;5111392;27;20034;-82
2020/12/12 09:37:11;;;;;;;82.57;37.58;;;4.70;99.90;;;;;;5105432;28;20035;-82
2020/12/12 09:39:37;;;;;;;92.40;37.70;;;4.60;99.90;;;;;;5094432;27;20023;-82
2020/12/12 09:42:03;;;;;;;94.45;39.83;;;4.70;99.90;;;;;;5110680;28;20023;-81
2020/12/12 09:44:29;;;;;;;86.32;38.20;;;4.70;99.90;;;;;;5111912;27;20033;-82
2020/12/12 09:46:55;;;;;;;81.75;35.15;;;4.60;99.90;;;;;;5093612;28;20549;-81
2020/12/12 09:49:21;;;;;;;86.35;37.10;;;4.50;99.90;;;;;;5111038;27;20032;-83
2020/12/12 09:51:47;;;;;;;89.35;36.72;;;4.40;99.90;;;;;;5112561;27;20485;-82
2020/12/12 09:54:13;;;;;;;93.53;40.70;;;4.40;99.90;;;;;;5130379;27;20031;-82
2020/12/12 09:56:39;;;;;;;91.25;37.83;;;4.40;99.90;;;;;;5091088;28;20467;-80
2020/12/12 09:59:05;;;;;;;86.75;38.03;;;4.40;99.90;;;;;;5092017;28;20071;-81
2020/12/12 10:01:31;;;;;;;88.05;38.10;;;4.40;99.90;;;;;;5127532;27;20026;-82
2020/12/12 10:03:56;;;;;;;101.22;40.45;;;4.50;99.90;;;;;;5130065;27;20099;-81
2020/12/12 10:06:22;;;;;;;84.70;36.03;;;4.50;99.90;;;;;;5111262;27;20039;-81
2020/12/12 10:08:48;;;;;;;89.82;39.08;;;4.30;99.90;;;;;;5114480;27;20035;-81
2020/12/12 10:11:13;;;;;;;87.55;38.67;;;4.40;99.90;;;;;;5127914;27;20030;-82
2020/12/12 10:13:39;;;;;;;90.90;37.53;;;4.40;99.90;;;;;;5151315;27;20022;-81
2020/12/12 10:16:05;;;;;;;76.53;33.72;;;4.50;99.90;;;;;;5131472;27;20030;-81
2020/12/12 10:18:31;;;;;;;90.50;36.53;;;4.50;99.90;;;;;;5131935;27;20023;-82
2020/12/12 10:20:57;;;;;;;83.90;37.53;;;4.60;99.90;;;;;;5131543;27;20022;-81
2020/12/12 10:23:23;;;;;;;81.22;36.50;;;4.50;99.90;;;;;;5131751;27;20490;-81
2020/12/12 10:25:48;;;;;;;81.93;36.63;;;4.40;99.90;;;;;;5131678;27;20019;-81
2020/12/12 10:28:14;;;;;;;87.85;36.53;;;4.50;99.90;;;;;;5131835;27;20023;-81
2020/12/12 10:30:39;;;;;;;83.47;35.53;;;4.50;99.90;;;;;;5121526;28;20022;-81
2020/12/12 10:33:05;;;;;;;93.63;38.22;;;4.50;99.90;;;;;;5127913;28;20490;-81
2020/12/12 10:35:31;;;;;;;85.78;36.30;;;4.60;99.90;;;;;;5114067;27;20039;-81
2020/12/12 10:38:00;;;;;;;116.75;41.88;;;4.50;99.90;;;;;;5126942;28;20035;-81
2020/12/12 10:40:38;;;;;;;87.07;35.08;;;4.60;99.90;;;;;;5102281;28;20027;-81
2020/12/12 10:43:05;;;;;;;72.93;32.30;;;4.60;99.90;;;;;;5109679;28;20035;-81
2020/12/12 10:45:31;;;;;;;83.78;36.47;;;4.50;99.90;;;;;;5109280;28;20027;-81
2020/12/12 10:47:56;;;;;;;69.88;30.10;;;4.50;99.90;;;;;;5109231;28;20444;-81
2020/12/12 10:50:22;;;;;;;78.35;33.20;;;4.60;99.90;;;;;;5108868;28;20587;-81
2020/12/12 10:52:49;;;;;;;80.47;35.30;;;4.60;99.90;;;;;;5109833;27;20035;-80
2020/12/12 10:55:15;;;;;;;78.53;33.88;;;4.60;99.90;;;;;;5113551;27;20019;-82
2020/12/12 10:57:40;;;;;;;80.18;34.83;;;4.60;99.90;;;;;;5113163;27;20046;-81
2020/12/12 11:00:06;;;;;;;79.40;33.55;;;4.60;99.90;;;;;;5112869;27;20041;-82
2020/12/12 11:02:34;;;;;;;80.45;35.85;;;4.70;99.90;;;;;;5113978;27;20027;-82
2020/12/12 11:05:00;;;;;;;79.80;36.00;;;4.80;99.90;;;;;;5129180;27;20031;-82
2020/12/12 11:07:26;;;;;;;86.38;37.13;;;4.80;99.90;;;;;;5108501;28;20438;-82
2020/12/12 11:09:52;;;;;;;82.57;35.03;;;4.80;99.90;;;;;;5096736;27;20050;-82
2020/12/12 11:12:18;;;;;;;77.07;34.60;;;4.80;99.90;;;;;;5128028;27;20347;-81
2020/12/12 11:14:47;;;;;;;76.65;36.33;;;4.70;99.90;;;;;;5116053;27;20416;-81
2020/12/12 11:17:13;;;;;;;72.25;35.30;;;4.70;99.90;;;;;;5114281;27;20023;-81
2020/12/12 11:19:38;;;;;;;74.15;33.63;;;4.80;99.90;;;;;;5113743;27;20084;-81
2020/12/12 11:22:04;;;;;;;81.30;35.45;;;4.90;99.90;;;;;;5131894;27;20026;-81
2020/12/12 11:24:30;;;;;;;73.53;32.13;;;4.90;99.90;;;;;;5111740;27;20056;-81
2020/12/12 11:26:55;;;;;;;77.85;34.72;;;4.90;99.90;;;;;;5111067;28;20022;-81
2020/12/12 11:29:21;;;;;;;64.25;30.40;;;5.00;99.90;;;;;;5077044;27;20448;-80
2020/12/12 11:31:52;;;;;;;76.60;33.90;;;5.00;99.90;;;;;;5126147;27;20028;-81
2020/12/12 11:34:26;;;;;;;78.40;33.88;;;5.00;99.90;;;;;;5130043;27;20420;-80
2020/12/12 11:37:08;;;;;;;79.25;33.47;;;5.00;99.90;;;;;;5098384;27;20031;-81
2020/12/12 11:47:12;;;;;;;75.47;34.00;;;5.10;99.90;;;;;;5132610;27;20106;-82
2020/12/12 11:49:40;;;;;;;81.82;32.30;;;5.10;99.90;;;;;;5113138;27;20110;-81
2020/12/12 11:52:05;;;;;;;67.65;29.00;;;5.10;99.90;;;;;;5113914;27;20110;-81
2020/12/12 11:54:31;;;;;;;72.25;32.40;;;5.10;99.90;;;;;;5113865;27;20066;-81
2020/12/12 11:56:56;;;;;;;75.65;33.50;;;5.10;99.90;;;;;;5113591;27;20028;-82
2020/12/12 11:59:23;;;;;;;72.80;31.35;;;5.00;99.90;;;;;;5111209;27;20031;-81
2020/12/12 12:01:49;;;;;;;69.18;32.03;;;5.10;99.90;;;;;;5111113;28;20020;-81
2020/12/12 12:04:14;;;;;;;68.70;31.23;;;5.10;99.90;;;;;;5109642;28;20406;-82
2020/12/12 12:06:40;;;;;;;69.32;32.63;;;5.10;99.90;;;;;;5119175;27;20074;-82
2020/12/12 12:11:32;;;;;;;70.20;31.08;;;5.20;99.90;;;;;;5131878;27;20128;-81
2020/12/12 12:14:01;;;;;;;69.07;32.33;;;5.30;99.90;;;;;;5113493;27;20055;-81
2020/12/12 12:16:27;;;;;;;70.53;30.25;;;5.20;99.90;;;;;;5116402;27;20022;-82
2020/12/12 12:18:53;;;;;;;66.78;29.65;;;5.20;99.90;;;;;;5151540;27;20398;-82
2020/12/12 12:21:19;;;;;;;75.45;31.70;;;5.20;99.90;;;;;;5134626;27;20110;-82
2020/12/12 12:23:44;;;;;;;74.47;33.28;;;5.20;99.90;;;;;;5112793;27;20058;-82
2020/12/12 12:26:13;;;;;;;63.95;29.38;;;5.30;99.90;;;;;;5127107;27;20034;-82
2020/12/12 12:28:39;;;;;;;69.10;29.70;;;5.40;99.90;;;;;;5129407;27;20069;-82
2020/12/12 12:31:04;;;;;;;63.22;31.73;;;5.30;99.90;;;;;;5117819;27;20054;-82
2020/12/12 12:33:30;;;;;;;65.03;29.83;;;5.20;99.90;;;;;;5112957;27;20047;-82
2020/12/12 12:35:56;;;;;;;73.63;32.50;;;5.30;99.90;;;;;;5108603;27;20030;-82
2020/12/12 12:38:22;;;;;;;67.00;30.15;;;5.40;99.90;;;;;;5133451;27;20031;-82
2020/12/12 12:40:48;;;;;;;71.57;30.08;;;5.30;99.90;;;;;;5110823;27;20046;-82
2020/12/12 12:43:14;;;;;;;65.40;29.63;;;5.30;99.90;;;;;;5128334;27;20039;-82
2020/12/12 12:45:39;;;;;;;62.97;30.55;;;5.30;99.90;;;;;;5130501;27;20045;-82
2020/12/12 12:48:05;;;;;;;68.35;31.10;;;5.30;99.90;;;;;;5129721;27;20020;-82